Time;durP1;ratioP1;P1;durP2;ratioP2;P2;SDS_P1;SDS_P2;PMS_P1;PMS_P2;Temp;Humidity;BMP_temperature;BMP_pressure;BME280_temperature;BME280_humidity;BME280_pressure;Samples;Min_cycle;Max_cycle;Signal;HPM_P1;HPM_P2
2022/11/25 00:01:43;;;;;;;84.97;58.50;;;;;;;;;;4993157;28;20045;-68
2022/11/25 00:04:47;;;;;;;96.68;57.03;;;9.60;99.90;;;;;;4992778;28;20489;-68
2022/11/25 00:07:51;;;;;;;88.70;54.50;;;10.40;99.90;;;;;;4992758;28;20049;-67
2022/11/25 00:10:55;;;;;;;89.40;52.85;;;;;;;;;;4992876;28;20509;-68
2022/11/25 00:13:59;;;;;;;88.80;53.13;;;10.50;99.90;;;;;;4992197;28;20041;-68
2022/11/25 00:17:04;;;;;;;86.13;54.45;;;;;;;;;;4992753;28;20053;-68
2022/11/25 00:20:08;;;;;;;91.13;54.30;;;;;;;;;;4992638;28;20049;-68
2022/11/25 00:23:13;;;;;;;96.72;55.33;;;;;;;;;;4992710;28;20042;-68
2022/11/25 00:26:17;;;;;;;84.88;53.83;;;;;;;;;;4992258;28;20092;-68
2022/11/25 00:29:21;;;;;;;91.93;57.42;;;;;;;;;;4992480;28;20053;-68
2022/11/25 00:32:25;;;;;;;96.10;58.85;;;;;;;;;;5003038;28;20045;-68
2022/11/25 00:35:30;;;;;;;92.68;55.95;;;10.50;99.90;;;;;;4992154;28;20045;-68
2022/11/25 00:38:33;;;;;;;89.70;57.60;;;10.70;99.90;;;;;;4992293;28;20045;-68
2022/11/25 00:45:01;;;;;;;85.30;55.22;;;;;;;;;;4992162;28;20497;-68
2022/11/25 00:48:05;;;;;;;94.10;54.83;;;8.30;99.90;;;;;;4992131;28;20057;-67
2022/11/25 00:51:09;;;;;;;89.15;55.67;;;;;;;;;;4992171;28;20045;-68
2022/11/25 00:54:13;;;;;;;82.45;51.47;;;10.50;99.90;;;;;;5002863;28;20053;-68
2022/11/25 00:57:20;;;;;;;87.85;51.97;;;10.10;99.90;;;;;;4991973;28;20493;-68
2022/11/25 01:00:24;;;;;;;75.57;50.25;;;10.40;99.90;;;;;;4991452;28;20049;-68
2022/11/25 01:03:27;;;;;;;75.32;49.22;;;10.30;99.90;;;;;;4991170;28;20598;-68
2022/11/25 01:06:32;;;;;;;78.75;51.15;;;10.30;99.90;;;;;;4991817;28;20053;-67
2022/11/25 01:09:36;;;;;;;67.75;47.20;;;;;;;;;;4992301;28;20386;-67
2022/11/25 01:12:40;;;;;;;71.72;46.55;;;10.20;99.90;;;;;;5002289;28;20050;-67
2022/11/25 01:15:43;;;;;;;69.47;48.33;;;10.20;99.90;;;;;;4991906;28;20529;-67
2022/11/25 01:18:49;;;;;;;71.60;49.40;;;10.10;99.90;;;;;;4991209;28;20061;-68
2022/11/25 01:21:56;;;;;;;81.78;51.80;;;;;;;;;;5002126;28;20050;-68
2022/11/25 01:25:00;;;;;;;68.50;48.70;;;10.10;99.90;;;;;;4991897;28;20057;-68
2022/11/25 01:28:05;;;;;;;81.32;51.55;;;;;;;;;;5002010;28;20406;-68
2022/11/25 01:31:13;;;;;;;80.43;52.17;;;10.00;99.90;;;;;;4991564;28;20064;-68
2022/11/25 01:34:23;;;;;;;78.75;48.90;;;10.10;99.90;;;;;;4991732;28;20049;-68
2022/11/25 01:37:27;;;;;;;75.57;49.65;;;;;;;;;;4991905;28;20053;-68
2022/11/25 01:40:31;;;;;;;74.13;48.45;;;10.00;99.90;;;;;;4991464;28;20053;-68
2022/11/25 01:43:36;;;;;;;77.78;50.90;;;;;;;;;;4990738;28;20070;-68
2022/11/25 01:46:52;;;;;;;87.13;55.22;;;10.10;99.90;;;;;;4990542;28;20057;-68
2022/11/25 01:50:02;;;;;;;76.20;51.97;;;10.10;99.90;;;;;;4992537;28;20505;-67
2022/11/25 01:53:09;;;;;;;83.55;52.78;;;10.10;99.90;;;;;;4995551;28;20046;-67
2022/11/25 01:56:15;;;;;;;76.00;51.38;;;10.20;99.90;;;;;;4995276;28;20049;-68
2022/11/25 01:59:19;;;;;;;73.45;49.30;;;10.40;99.90;;;;;;5005959;28;20065;-69
2022/11/25 02:02:27;;;;;;;74.10;49.35;;;10.10;99.90;;;;;;4995492;28;20049;-68
2022/11/25 02:05:45;;;;;;;76.20;49.97;;;10.10;99.90;;;;;;4995095;28;20486;-68
2022/11/25 02:08:57;;;;;;;78.60;49.03;;;10.30;99.90;;;;;;4994992;28;20053;-67
2022/11/25 02:12:01;;;;;;;78.15;48.83;;;10.00;99.90;;;;;;4994961;28;20038;-67
2022/11/25 02:15:07;;;;;;;68.93;47.00;;;9.80;99.90;;;;;;4994400;28;20061;-67
2022/11/25 02:18:15;;;;;;;70.10;46.13;;;;;;;;;;4995238;28;20041;-68
2022/11/25 02:21:42;;;;;;;81.53;46.35;;;9.70;99.90;;;;;;4994969;28;20057;-68
2022/11/25 02:24:53;;;;;;;73.05;45.63;;;9.80;99.90;;;;;;4994560;28;20041;-68
2022/11/25 02:28:19;;;;;;;61.13;43.72;;;9.70;99.90;;;;;;5005294;28;20057;-67
2022/11/25 02:31:24;;;;;;;63.72;44.67;;;;;;;;;;4993660;28;20422;-67
2022/11/25 02:34:29;;;;;;;60.38;41.80;;;;;;;;;;5005202;28;20228;-67
2022/11/25 02:37:33;;;;;;;69.82;40.72;;;;;;;;;;4994033;28;20057;-67
2022/11/25 02:41:00;;;;;;;63.45;43.08;;;;;;;;;;4994596;28;20045;-68
2022/11/25 02:44:05;;;;;;;58.92;41.55;;;;;;;;;;5005204;28;20590;-68
2022/11/25 02:47:09;;;;;;;59.80;40.55;;;9.50;99.90;;;;;;4993432;28;20073;-66
2022/11/25 02:50:15;;;;;;;64.10;39.75;;;;;;;;;;5005029;28;20045;-68
2022/11/25 02:53:20;;;;;;;58.22;38.45;;;9.70;99.90;;;;;;5004918;28;20049;-68
2022/11/25 02:56:28;;;;;;;54.95;37.97;;;9.40;99.90;;;;;;5004711;28;20045;-68
2022/11/25 02:59:33;;;;;;;63.65;39.88;;;;;;;;;;5004782;28;20505;-68
2022/11/25 03:02:38;;;;;;;64.15;40.50;;;;;;;;;;4992851;28;20045;-68
2022/11/25 03:05:43;;;;;;;58.30;39.00;;;;;;;;;;4993905;28;20045;-68
2022/11/25 03:08:47;;;;;;;64.38;40.90;;;;;;;;;;4993848;28;20061;-68
2022/11/25 03:15:14;;;;;;;64.57;41.75;;;9.40;99.90;;;;;;4993162;28;20045;-68
2022/11/25 03:18:18;;;;;;;72.43;42.58;;;9.20;99.90;;;;;;4993002;28;20045;-67
2022/11/25 03:21:22;;;;;;;60.72;42.08;;;;;;;;;;4992935;28;20045;-67
2022/11/25 03:24:27;;;;;;;63.05;40.95;;;9.30;99.90;;;;;;4992819;28;20041;-67
2022/11/25 03:27:35;;;;;;;63.55;40.00;;;7.70;99.90;;;;;;4993109;28;20050;-67
2022/11/25 03:30:40;;;;;;;61.20;39.25;;;;;;;;;;4993416;28;20053;-68
2022/11/25 03:33:44;;;;;;;60.83;39.05;;;;;;;;;;4993590;28;20045;-67
2022/11/25 03:36:48;;;;;;;59.80;39.03;;;;;;;;;;4992770;28;20132;-67
2022/11/25 03:39:52;;;;;;;56.40;37.72;;;9.60;99.90;;;;;;5004188;28;20532;-67
2022/11/25 03:42:57;;;;;;;55.97;36.97;;;;;;;;;;5003979;28;20061;-68
2022/11/25 03:46:01;;;;;;;55.35;36.92;;;;;;;;;;4993048;28;20045;-68
2022/11/25 03:49:05;;;;;;;57.97;37.78;;;8.00;99.90;;;;;;4992688;28;20053;-68
2022/11/25 03:52:10;;;;;;;56.55;36.50;;;;;;;;;;5003495;28;20041;-68
2022/11/25 03:55:14;;;;;;;53.50;35.75;;;;;;;;;;5003817;28;20045;-67
2022/11/25 03:58:22;;;;;;;55.35;37.60;;;;;;;;;;4992089;28;20050;-68
2022/11/25 04:01:28;;;;;;;60.08;37.25;;;;;;;;;;4992305;28;20614;-67
2022/11/25 04:04:32;;;;;;;59.00;37.53;;;;;;;;;;4992860;28;20042;-67
2022/11/25 04:07:37;;;;;;;57.03;37.63;;;;;;;;;;5003240;28;20057;-67
2022/11/25 04:10:42;;;;;;;62.63;37.22;;;;;;;;;;4992010;28;20049;-68
2022/11/25 04:13:47;;;;;;;57.65;37.60;;;;;;;;;;4991650;28;20110;-67
2022/11/25 04:16:52;;;;;;;63.10;37.55;;;;;;;;;;4992752;28;20037;-67
2022/11/25 04:19:56;;;;;;;57.05;36.90;;;;;;;;;;4992749;28;20052;-67
2022/11/25 04:23:00;;;;;;;60.40;38.75;;;9.50;99.90;;;;;;4991829;28;20050;-67
2022/11/25 04:26:05;;;;;;;62.60;37.72;;;;;;;;;;5003018;28;20045;-67
2022/11/25 04:29:14;;;;;;;56.10;38.60;;;;;;;;;;4991835;28;20050;-67
2022/11/25 04:32:19;;;;;;;60.80;38.63;;;;;;;;;;5002748;28;20058;-67
2022/11/25 04:35:23;;;;;;;59.88;41.40;;;9.70;99.90;;;;;;4992061;28;20402;-67
2022/11/25 04:38:31;;;;;;;55.95;36.22;;;;;;;;;;4991681;28;20054;-68
2022/11/25 04:41:35;;;;;;;52.20;35.65;;;9.60;99.90;;;;;;4992945;28;20493;-68
2022/11/25 04:44:40;;;;;;;59.13;36.05;;;;;;;;;;5002576;28;20045;-67
2022/11/25 04:47:44;;;;;;;55.15;33.38;;;9.70;99.90;;;;;;4991482;28;20053;-68
2022/11/25 04:50:49;;;;;;;55.33;36.30;;;10.30;99.90;;;;;;4991563;28;20053;-67
2022/11/25 04:53:54;;;;;;;54.10;33.90;;;9.30;99.90;;;;;;5002593;28;20065;-68
2022/11/25 04:57:00;;;;;;;49.42;30.23;;;;;;;;;;4991288;28;20049;-68
2022/11/25 05:00:08;;;;;;;43.97;28.55;;;8.30;99.90;;;;;;4991188;28;20045;-68
2022/11/25 05:03:12;;;;;;;52.55;30.70;;;;;;;;;;5002846;28;20061;-68
2022/11/25 05:06:17;;;;;;;48.92;31.10;;;;;;;;;;5002547;28;20038;-68
2022/11/25 05:09:21;;;;;;;48.80;31.13;;;;;;;;;;4992180;28;20512;-68
2022/11/25 05:12:35;;;;;;;47.72;32.05;;;9.30;99.90;;;;;;5002402;28;20046;-68
2022/11/25 05:15:43;;;;;;;47.85;29.77;;;;;;;;;;4990892;28;20061;-67
2022/11/25 05:18:47;;;;;;;54.58;30.70;;;;;;;;;;4992007;28;20506;-68
2022/11/25 05:21:51;;;;;;;45.47;29.67;;;;;;;;;;4991323;28;20050;-68
2022/11/25 05:24:56;;;;;;;44.92;28.15;;;;;;;;;;4990457;28;20525;-68
2022/11/25 05:28:01;;;;;;;41.40;26.95;;;;;;;;;;4990868;28;20422;-67
2022/11/25 05:31:05;;;;;;;42.65;27.23;;;;;;;;;;4991390;28;20053;-67
2022/11/25 05:34:10;;;;;;;38.85;27.58;;;;;;;;;;5002009;28;20061;-67
2022/11/25 05:37:15;;;;;;;41.13;26.58;;;;;;;;;;5002184;28;20069;-67
2022/11/25 05:40:27;;;;;;;43.35;27.27;;;;;;;;;;4990737;28;20041;-68
2022/11/25 05:43:46;;;;;;;40.78;24.52;;;;;;;;;;5002077;28;20050;-67
2022/11/25 05:46:50;;;;;;;40.17;25.52;;;;;;;;;;5001859;28;20615;-68
2022/11/25 05:49:55;;;;;;;42.75;26.38;;;;;;;;;;5002269;28;20041;-68
2022/11/25 05:53:00;;;;;;;43.92;27.98;;;;;;;;;;4990838;28;20069;-69
2022/11/25 05:56:06;;;;;;;44.60;29.13;;;9.30;99.90;;;;;;4990577;28;20403;-68
2022/11/25 05:59:41;;;;;;;50.33;28.05;;;;;;;;;;5001936;28;20054;-68
2022/11/25 06:03:06;;;;;;;45.22;26.00;;;;;;;;;;4991427;28;20053;-69
2022/11/25 06:06:11;;;;;;;42.70;25.23;;;;;;;;;;4990382;28;20063;-69
2022/11/25 06:09:16;;;;;;;42.25;24.27;;;;;;;;;;4990658;28;20054;-68
2022/11/25 06:12:21;;;;;;;47.47;23.65;;;10.40;99.90;;;;;;4991173;28;20049;-69
2022/11/25 06:15:26;;;;;;;37.67;22.35;;;;;;;;;;4990793;28;20242;-68
2022/11/25 06:18:35;;;;;;;40.17;23.13;;;10.30;99.90;;;;;;4990365;28;20193;-67
2022/11/25 06:21:40;;;;;;;41.55;25.98;;;;;;;;;;4990793;28;20045;-68
2022/11/25 06:24:44;;;;;;;53.95;25.65;;;;;;;;;;5001444;28;20041;-68
2022/11/25 06:27:48;;;;;;;35.95;22.27;;;9.90;99.90;;;;;;4990259;28;20053;-67
2022/11/25 06:30:53;;;;;;;36.38;20.23;;;;;;;;;;5001552;28;20525;-68
2022/11/25 06:34:07;;;;;;;39.10;21.63;;;9.70;99.90;;;;;;5001469;28;20045;-68
2022/11/25 06:37:13;;;;;;;43.22;21.25;;;;;;;;;;5004114;28;20061;-69
2022/11/25 06:40:17;;;;;;;30.80;19.08;;;;;;;;;;4994755;28;20050;-68
2022/11/25 06:43:24;;;;;;;35.03;19.38;;;;;;;;;;4994682;28;20045;-69
2022/11/25 06:46:28;;;;;;;36.03;18.55;;;10.10;99.90;;;;;;4994814;28;20451;-67
2022/11/25 06:49:32;;;;;;;44.33;20.40;;;11.50;99.90;;;;;;4994841;28;20406;-68
2022/11/25 06:52:36;;;;;;;37.67;20.73;;;;;;;;;;4994408;28;20049;-68
2022/11/25 06:55:40;;;;;;;35.88;18.25;;;;;;;;;;4994255;28;20049;-69
2022/11/25 06:58:46;;;;;;;34.92;17.98;;;9.90;99.90;;;;;;4994200;28;20313;-69
2022/11/25 07:01:50;;;;;;;42.13;19.13;;;8.60;99.90;;;;;;4993982;28;20053;-70
2022/11/25 07:04:54;;;;;;;39.05;17.17;;;11.10;99.90;;;;;;4993959;28;20049;-68
2022/11/25 07:07:58;;;;;;;36.83;18.58;;;;;;;;;;4993701;28;20058;-69
2022/11/25 07:11:28;;;;;;;33.15;17.10;;;10.50;99.90;;;;;;4993735;28;20049;-69
2022/11/25 07:14:32;;;;;;;35.65;18.23;;;;;;;;;;4993838;28;20045;-67
2022/11/25 07:17:37;;;;;;;39.00;17.67;;;;;;;;;;4993927;28;20046;-65
2022/11/25 07:20:41;;;;;;;41.47;18.05;;;;;;;;;;4993945;28;20045;-66
2022/11/25 07:23:46;;;;;;;39.10;18.35;;;;;;;;;;4993496;28;20045;-66
2022/11/25 07:26:50;;;;;;;33.05;18.50;;;;;;;;;;4993514;28;20509;-65
2022/11/25 07:29:54;;;;;;;35.00;19.77;;;10.70;99.90;;;;;;4992993;28;20057;-65
2022/11/25 07:32:58;;;;;;;37.63;18.38;;;;;;;;;;4993431;28;20053;-66
2022/11/25 07:36:07;;;;;;;34.13;18.20;;;11.10;99.90;;;;;;4993098;28;20570;-66
2022/11/25 07:39:15;;;;;;;34.78;18.95;;;11.10;99.90;;;;;;4993101;28;20061;-65
2022/11/25 07:42:19;;;;;;;37.40;18.88;;;;;;;;;;4993186;28;20057;-66
2022/11/25 07:45:24;;;;;;;31.25;18.70;;;;;;;;;;4992752;28;20066;-66
2022/11/25 07:48:40;;;;;;;34.20;20.23;;;;;;;;;;5002958;28;20422;-65
2022/11/25 07:52:01;;;;;;;45.20;24.95;;;9.60;99.90;;;;;;4992899;28;20061;-66
2022/11/25 07:55:05;;;;;;;39.85;22.55;;;8.20;99.90;;;;;;4993111;28;20049;-65
2022/11/25 07:58:09;;;;;;;48.97;22.77;;;;;;;;;;4992974;28;20069;-67
2022/11/25 08:01:15;;;;;;;58.40;24.48;;;9.10;99.90;;;;;;4992917;28;20054;-67
2022/11/25 08:04:20;;;;;;;43.60;25.50;;;12.80;99.90;;;;;;4992661;28;20430;-65
2022/11/25 08:07:25;;;;;;;92.03;30.40;;;;;;;;;;4992197;28;20045;-66
2022/11/25 08:10:29;;;;;;;51.15;26.25;;;11.60;99.90;;;;;;4991794;28;20430;-65
2022/11/25 08:13:33;;;;;;;50.30;24.80;;;;;;;;;;4992849;28;20050;-69
2022/11/25 08:16:38;;;;;;;48.22;23.80;;;13.10;99.90;;;;;;4992910;28;20537;-64
2022/11/25 08:19:43;;;;;;;38.75;22.02;;;;;;;;;;4992615;28;20482;-65
2022/11/25 08:22:47;;;;;;;42.80;22.95;;;;;;;;;;4992188;28;20042;-65
2022/11/25 08:25:51;;;;;;;43.90;23.27;;;;;;;;;;4992318;28;20045;-66
2022/11/25 08:28:56;;;;;;;48.65;23.25;;;11.90;99.90;;;;;;4992231;28;20414;-62
2022/11/25 08:32:01;;;;;;;44.95;23.00;;;11.80;99.90;;;;;;4991930;28;20193;-66
2022/11/25 08:35:06;;;;;;;47.17;23.50;;;11.70;99.90;;;;;;4992283;28;20379;-65
2022/11/25 08:38:11;;;;;;;47.22;23.55;;;11.90;99.90;;;;;;5002895;28;20041;-64
2022/11/25 08:41:25;;;;;;;42.08;23.60;;;11.90;99.90;;;;;;4992386;28;20050;-64
2022/11/25 08:44:29;;;;;;;43.30;23.77;;;12.10;99.90;;;;;;4992118;28;20057;-66
2022/11/25 08:47:34;;;;;;;44.97;26.33;;;12.20;99.90;;;;;;4991986;28;20466;-66
2022/11/25 08:50:38;;;;;;;43.72;26.08;;;12.30;99.90;;;;;;4992230;28;20045;-65
2022/11/25 08:53:43;;;;;;;48.20;26.60;;;12.40;99.90;;;;;;5002155;28;20410;-64
2022/11/25 08:56:47;;;;;;;51.33;27.75;;;12.40;99.90;;;;;;4992140;28;20057;-76
2022/11/25 08:59:52;;;;;;;43.30;26.75;;;12.50;99.90;;;;;;4991298;28;20106;-69
2022/11/25 09:02:56;;;;;;;40.40;24.10;;;12.60;99.90;;;;;;4992151;28;20108;-68
2022/11/25 09:06:00;;;;;;;38.15;22.98;;;12.80;99.90;;;;;;4991813;28;20049;-68
2022/11/25 09:09:05;;;;;;;41.03;22.77;;;12.90;99.90;;;;;;4991582;28;20058;-68
2022/11/25 09:12:10;;;;;;;32.38;22.52;;;13.10;99.90;;;;;;4991782;28;20398;-67
2022/11/25 09:15:14;;;;;;;38.05;22.85;;;13.20;99.90;;;;;;4991768;28;20118;-67
2022/11/25 09:18:19;;;;;;;46.47;23.77;;;13.30;99.90;;;;;;4991982;28;20053;-66
2022/11/25 09:21:23;;;;;;;40.13;22.50;;;13.50;99.90;;;;;;4991959;28;20045;-64
2022/11/25 09:24:27;;;;;;;34.08;20.15;;;13.70;99.90;;;;;;4991716;28;20037;-64
2022/11/25 09:27:32;;;;;;;30.10;19.65;;;14.00;99.90;;;;;;4990594;28;20093;-65
2022/11/25 09:30:36;;;;;;;27.95;20.00;;;14.30;99.90;;;;;;4991264;28;20061;-64
2022/11/25 09:33:40;;;;;;;27.17;17.95;;;14.50;99.90;;;;;;4991993;28;20062;-69
2022/11/25 09:36:45;;;;;;;28.55;19.05;;;14.70;99.90;;;;;;4991406;28;20054;-65
2022/11/25 09:39:51;;;;;;;26.98;20.48;;;15.00;99.90;;;;;;5001978;28;20545;-65
2022/11/25 09:46:54;;;;;;;35.42;19.92;;;15.40;99.90;;;;;;4991563;28;20394;-68
2022/11/25 09:50:16;;;;;;;27.02;17.40;;;15.50;99.90;;;;;;4991549;28;20513;-70
2022/11/25 09:53:29;;;;;;;27.35;16.33;;;15.80;99.90;;;;;;4991185;28;20394;-69
2022/11/25 09:56:35;;;;;;;22.48;15.05;;;16.00;99.90;;;;;;4990489;28;20394;-70
2022/11/25 09:59:51;;;;;;;29.23;14.82;;;16.20;99.90;;;;;;4990958;28;20075;-68
2022/11/25 10:03:13;;;;;;;20.60;12.85;;;16.30;99.90;;;;;;4991183;28;20387;-69
2022/11/25 10:06:25;;;;;;;21.92;12.98;;;16.40;99.90;;;;;;4990987;28;20050;-69
2022/11/25 10:09:34;;;;;;;22.17;12.10;;;16.60;99.90;;;;;;4990858;28;20387;-68
2022/11/25 10:12:42;;;;;;;18.05;11.68;;;16.60;99.90;;;;;;4994926;28;20049;-68
2022/11/25 10:15:49;;;;;;;21.20;11.82;;;16.60;99.90;;;;;;4995000;28;20391;-69
2022/11/25 10:19:06;;;;;;;21.25;11.35;;;16.50;99.90;;;;;;4994994;28;20046;-70
2022/11/25 10:22:26;;;;;;;24.02;12.05;;;16.40;99.90;;;;;;4994755;28;20046;-68
2022/11/25 10:25:37;;;;;;;15.70;10.13;;;16.30;99.90;;;;;;4994275;28;20049;-69
2022/11/25 10:29:07;;;;;;;18.67;10.25;;;16.30;99.90;;;;;;4994693;28;20551;-69
2022/11/25 10:32:26;;;;;;;19.27;11.05;;;16.20;99.90;;;;;;4994585;28;20045;-68
2022/11/25 10:35:49;;;;;;;21.08;13.90;;;16.20;99.90;;;;;;4994543;28;20053;-68
2022/11/25 10:39:11;;;;;;;29.17;17.80;;;16.20;99.90;;;;;;4994443;28;20049;-69
2022/11/25 10:42:21;;;;;;;31.17;18.33;;;16.20;99.90;;;;;;4994745;28;20061;-70
2022/11/25 10:45:32;;;;;;;31.75;18.02;;;16.30;99.90;;;;;;4994378;28;20201;-68
2022/11/25 10:49:18;;;;;;;33.40;19.17;;;16.40;99.90;;;;;;4994012;28;20402;-69
2022/11/25 10:52:26;;;;;;;27.13;16.90;;;16.50;99.70;;;;;;4939478;28;20047;-68
2022/11/25 10:55:32;;;;;;;26.98;16.05;;;16.60;98.80;;;;;;4994372;28;20061;-69
2022/11/25 10:58:38;;;;;;;23.85;15.07;;;16.60;98.80;;;;;;4994418;28;20054;-67
2022/11/25 11:01:42;;;;;;;28.30;14.02;;;16.50;98.90;;;;;;4994494;28;20049;-67
2022/11/25 11:04:53;;;;;;;25.55;15.52;;;16.50;98.90;;;;;;4994786;28;20054;-66
2022/11/25 11:08:09;;;;;;;;;;;16.40;99.00;;;;;;4994546;28;20050;-67
2022/11/25 11:11:19;;;;;;;23.17;13.23;;;16.40;99.10;;;;;;4994168;28;19947;-69
2022/11/25 11:14:23;;;;;;;22.33;12.73;;;16.30;99.10;;;;;;4993762;28;20049;-67
2022/11/25 11:17:33;;;;;;;21.13;11.38;;;16.40;99.30;;;;;;5004610;28;20054;-68
2022/11/25 11:20:37;;;;;;;26.02;12.82;;;16.40;99.30;;;;;;4994529;28;20386;-69
2022/11/25 11:23:49;;;;;;;19.98;12.30;;;16.50;99.30;;;;;;4992824;28;20426;-69
2022/11/25 11:27:09;;;;;;;21.92;12.55;;;16.60;99.30;;;;;;4993714;28;20050;-68
2022/11/25 11:30:24;;;;;;;24.13;12.98;;;16.60;99.20;;;;;;4993520;28;20061;-69
2022/11/25 11:33:38;;;;;;;25.08;13.70;;;16.70;99.10;;;;;;4992558;28;20042;-69
2022/11/25 11:37:19;;;;;;;22.13;12.45;;;16.60;98.80;;;;;;4993023;28;20053;-69
2022/11/25 11:40:37;;;;;;;21.35;13.48;;;16.60;99.00;;;;;;4993592;28;20042;-69
2022/11/25 11:43:48;;;;;;;21.23;12.85;;;16.60;99.00;;;;;;4993337;28;20042;-68
2022/11/25 11:47:01;;;;;;;21.20;12.35;;;16.70;99.10;;;;;;4993476;28;20053;-69
2022/11/25 11:50:17;;;;;;;24.52;11.90;;;16.60;99.20;;;;;;4992948;28;20571;-69
2022/11/25 11:53:37;;;;;;;19.98;11.50;;;16.60;99.30;;;;;;4993118;28;20433;-68
2022/11/25 11:56:53;;;;;;;26.05;12.85;;;16.60;99.30;;;;;;4993139;28;20037;-67
2022/11/25 12:00:05;;;;;;;20.45;12.20;;;16.60;99.50;;;;;;4993143;28;20046;-68
2022/11/25 12:03:20;;;;;;;24.23;11.68;;;16.60;99.60;;;;;;4992671;28;20398;-69
2022/11/25 12:06:28;;;;;;;23.02;11.35;;;16.60;99.70;;;;;;4992537;28;20621;-68
2022/11/25 12:09:42;;;;;;;16.58;9.15;;;16.50;99.70;;;;;;4992574;28;20073;-68
2022/11/25 12:13:22;;;;;;;21.33;10.82;;;16.50;99.80;;;;;;5003147;28;20057;-68
2022/11/25 12:16:33;;;;;;;18.38;10.80;;;16.50;99.90;;;;;;4992930;28;20042;-68
2022/11/25 12:19:53;;;;;;;18.00;11.00;;;16.50;99.90;;;;;;4992711;28;20513;-68
2022/11/25 12:23:20;;;;;;;22.52;11.93;;;16.50;99.90;;;;;;4992436;28;20038;-68
2022/11/25 12:26:33;;;;;;;24.52;12.70;;;16.50;99.90;;;;;;4992491;28;20045;-68
2022/11/25 12:29:43;;;;;;;20.55;12.57;;;16.50;99.90;;;;;;4991493;28;20108;-69
2022/11/25 12:33:13;;;;;;;24.20;13.10;;;16.50;99.90;;;;;;4992507;28;20069;-68
2022/11/25 12:36:32;;;;;;;23.55;12.57;;;16.50;99.90;;;;;;4992344;28;20046;-68
2022/11/25 12:39:51;;;;;;;21.60;12.20;;;16.60;99.90;;;;;;5001117;28;20061;-68
2022/11/25 12:43:15;;;;;;;30.88;14.50;;;16.50;99.90;;;;;;4992339;28;20053;-69
2022/11/25 12:46:33;;;;;;;32.20;14.75;;;16.50;99.90;;;;;;4992147;28;20037;-69
2022/11/25 12:49:42;;;;;;;25.25;13.70;;;16.50;99.90;;;;;;4992085;28;20065;-68
2022/11/25 12:52:59;;;;;;;24.52;13.05;;;16.50;99.90;;;;;;4992093;28;20057;-69
2022/11/25 12:56:10;;;;;;;23.35;13.23;;;16.50;99.90;;;;;;4991822;28;20532;-69
2022/11/25 12:59:32;;;;;;;26.13;13.65;;;16.40;99.90;;;;;;4992012;28;20394;-69
2022/11/25 13:03:00;;;;;;;17.00;9.30;;;16.40;99.90;;;;;;4991930;28;20053;-68
2022/11/25 13:06:32;;;;;;;20.98;7.50;;;16.40;99.90;;;;;;4991956;28;20118;-68
2022/11/25 13:10:00;;;;;;;12.63;6.05;;;16.40;99.90;;;;;;4991702;28;20086;-68
2022/11/25 13:13:31;;;;;;;12.10;6.25;;;16.40;99.90;;;;;;5002379;28;20042;-68
2022/11/25 13:16:35;;;;;;;13.88;5.75;;;16.40;99.90;;;;;;4991590;28;20045;-68
2022/11/25 13:19:39;;;;;;;12.20;5.45;;;16.40;99.90;;;;;;5002111;28;20053;-68
2022/11/25 13:22:59;;;;;;;10.00;5.03;;;16.40;99.90;;;;;;4991916;28;20097;-67
2022/11/25 13:26:35;;;;;;;11.18;6.40;;;16.30;99.90;;;;;;4991715;28;20042;-68
2022/11/25 13:29:39;;;;;;;11.35;6.45;;;16.30;99.90;;;;;;4991455;28;20057;-66
2022/11/25 13:32:43;;;;;;;11.50;5.88;;;16.30;99.90;;;;;;4991971;28;20053;-68
2022/11/25 13:35:53;;;;;;;12.32;6.38;;;16.30;99.90;;;;;;4991655;28;20131;-67
2022/11/25 13:39:02;;;;;;;12.13;6.45;;;16.30;99.90;;;;;;4992123;28;20049;-68
2022/11/25 13:42:21;;;;;;;14.27;6.05;;;16.30;99.90;;;;;;4992291;28;20053;-67
2022/11/25 13:45:38;;;;;;;13.38;6.40;;;16.30;99.90;;;;;;4991597;28;20494;-69
2022/11/25 13:48:43;;;;;;;12.70;6.47;;;16.30;99.90;;;;;;4995311;28;20410;-68
2022/11/25 13:51:52;;;;;;;16.75;7.22;;;16.30;99.90;;;;;;4995426;28;20061;-70
2022/11/25 13:54:56;;;;;;;16.65;6.72;;;16.30;99.90;;;;;;4995506;28;20057;-69
2022/11/25 13:58:09;;;;;;;14.57;6.18;;;16.30;99.90;;;;;;4995535;28;20038;-69
2022/11/25 14:01:24;;;;;;;14.23;6.45;;;16.30;99.90;;;;;;4995115;28;20069;-68
2022/11/25 14:05:03;;;;;;;12.75;6.55;;;16.30;99.90;;;;;;5005663;28;20337;-68
2022/11/25 14:08:52;;;;;;;14.68;8.20;;;16.30;99.90;;;;;;4995035;28;20038;-68
2022/11/25 14:12:07;;;;;;;;;;;16.30;99.90;;;;;;4995827;28;20053;-68
2022/11/25 14:16:00;;;;;;;21.52;8.18;;;16.30;99.90;;;;;;4995037;28;20418;-67
2022/11/25 14:19:45;;;;;;;18.98;8.75;;;16.30;99.90;;;;;;4996096;28;20053;-68
2022/11/25 14:23:35;;;;;;;14.10;7.28;;;16.30;99.90;;;;;;4989974;28;20046;-68
2022/11/25 14:26:40;;;;;;;21.00;9.60;;;16.30;99.90;;;;;;4992637;28;20533;-69
2022/11/25 14:29:51;;;;;;;16.48;8.88;;;16.30;99.90;;;;;;4994588;28;20073;-69
2022/11/25 14:33:02;;;;;;;18.02;7.97;;;16.30;99.90;;;;;;5004593;28;20053;-69
2022/11/25 14:36:12;;;;;;;16.50;8.88;;;16.20;99.90;;;;;;4991381;28;20041;-68
2022/11/25 14:39:50;;;;;;;14.73;7.90;;;16.20;99.90;;;;;;4993830;28;20037;-66
2022/11/25 14:43:03;;;;;;;15.57;8.98;;;16.20;99.90;;;;;;4994210;28;20054;-66
2022/11/25 14:46:19;;;;;;;21.20;8.80;;;16.20;99.90;;;;;;4994379;28;20049;-64
2022/11/25 14:49:39;;;;;;;21.67;10.50;;;16.20;99.90;;;;;;4993972;28;20049;-65
2022/11/25 14:52:46;;;;;;;19.48;10.20;;;16.10;99.90;;;;;;4994012;28;20042;-65
2022/11/25 14:55:50;;;;;;;32.67;17.00;;;16.10;99.90;;;;;;5004477;28;20054;-66
2022/11/25 14:58:57;;;;;;;27.90;15.63;;;16.10;99.90;;;;;;4994066;28;20046;-67
2022/11/25 15:02:01;;;;;;;26.35;14.63;;;16.10;99.90;;;;;;4994032;28;20513;-66
2022/11/25 15:05:14;;;;;;;30.55;15.40;;;16.10;99.90;;;;;;4994063;28;20069;-64
2022/11/25 15:08:19;;;;;;;24.38;11.93;;;16.10;99.90;;;;;;4992983;28;20525;-66
2022/11/25 15:11:27;;;;;;;17.90;10.40;;;16.10;99.90;;;;;;4992590;28;20079;-67
2022/11/25 15:14:39;;;;;;;16.23;9.18;;;16.10;99.90;;;;;;4993834;28;20045;-67
2022/11/25 15:17:43;;;;;;;18.23;10.35;;;16.00;99.90;;;;;;4993894;28;20062;-65
2022/11/25 15:20:52;;;;;;;20.50;11.38;;;16.00;99.90;;;;;;4993890;28;20058;-66
2022/11/25 15:23:57;;;;;;;24.38;12.23;;;16.00;99.90;;;;;;4993597;28;20045;-70
2022/11/25 15:27:02;;;;;;;17.58;11.57;;;16.00;99.90;;;;;;4993750;28;20065;-65
2022/11/25 15:30:22;;;;;;;27.55;15.52;;;15.90;99.90;;;;;;4993078;28;20120;-65
2022/11/25 15:33:28;;;;;;;34.42;18.42;;;15.90;99.90;;;;;;4993342;28;20049;-66
2022/11/25 15:36:32;;;;;;;31.98;18.20;;;15.90;99.90;;;;;;4993710;28;20037;-68
2022/11/25 15:39:37;;;;;;;43.50;25.92;;;15.90;99.90;;;;;;4993397;28;20065;-66
2022/11/25 15:42:41;;;;;;;46.53;20.75;;;15.90;99.90;;;;;;4993097;28;20057;-65
2022/11/25 15:45:48;;;;;;;48.30;24.83;;;15.90;99.90;;;;;;4993343;28;20065;-67
2022/11/25 15:48:57;;;;;;;88.90;46.10;;;15.80;99.90;;;;;;4992947;28;20165;-66
2022/11/25 15:52:08;;;;;;;75.38;38.00;;;15.80;99.90;;;;;;4993313;28;20053;-66
2022/11/25 15:55:32;;;;;;;61.67;28.83;;;15.80;99.90;;;;;;4993372;28;20041;-67
2022/11/25 15:58:40;;;;;;;55.17;25.23;;;15.70;99.90;;;;;;4993620;28;20041;-66
2022/11/25 16:01:44;;;;;;;47.63;27.13;;;15.70;99.90;;;;;;5003715;28;20053;-66
2022/11/25 16:04:48;;;;;;;44.15;24.65;;;15.70;99.90;;;;;;5003635;28;20049;-68
2022/11/25 16:07:53;;;;;;;48.75;22.13;;;15.70;99.90;;;;;;4992212;28;20073;-66
2022/11/25 16:11:08;;;;;;;36.22;19.88;;;15.70;99.90;;;;;;4993012;28;20065;-66
2022/11/25 16:14:27;;;;;;;40.72;19.77;;;15.70;99.90;;;;;;5003224;28;20144;-65
2022/11/25 16:17:35;;;;;;;42.35;19.20;;;15.70;99.90;;;;;;4993199;28;20394;-68
2022/11/25 16:20:55;;;;;;;35.40;18.67;;;15.60;99.90;;;;;;4992952;28;20045;-67
2022/11/25 16:24:32;;;;;;;36.55;18.88;;;15.60;99.90;;;;;;4993169;28;20049;-65
2022/11/25 16:27:36;;;;;;;35.20;20.10;;;15.60;99.90;;;;;;4995546;28;20053;-66
2022/11/25 16:30:41;;;;;;;45.50;21.98;;;15.50;99.90;;;;;;4992337;28;20058;-66
2022/11/25 16:33:45;;;;;;;34.58;18.02;;;15.50;99.90;;;;;;4992739;28;20102;-66
2022/11/25 16:36:49;;;;;;;34.80;18.52;;;15.50;99.90;;;;;;4992276;28;20421;-64
2022/11/25 16:39:53;;;;;;;47.53;21.38;;;15.50;99.90;;;;;;4992648;28;20046;-67
2022/11/25 16:42:58;;;;;;;57.33;24.17;;;15.50;99.90;;;;;;4992222;28;20050;-68
2022/11/25 16:46:04;;;;;;;47.78;25.40;;;15.40;99.90;;;;;;4992035;28;20398;-67
2022/11/25 16:49:17;;;;;;;55.35;30.60;;;15.40;99.90;;;;;;4992093;28;20498;-66
2022/11/25 16:52:22;;;;;;;75.35;35.22;;;15.40;99.90;;;;;;4991969;28;20053;-66